Latest Weather Observations for Coldstream

IDV60901

Issued at 12:11 pm EDT Wednesday 19 December 2018 (issued every 10 minutes, with the page automatically refreshed every 10 minutes)

About weather observations | Map of Melbourne area stations | Latest observations for Melbourne area | Other Formats
Station Details ID: 086383 Name: COLDSTREAM Lat: -37.72 Lon: 145.41 Height: 83.0 m
Data from the previous 72 hours. | See also: Recent months at Coldstream
Date/Time
EDT
Temp
°C
App
Temp
°C
Dew
Point
°C
Rel
Hum
%
Delta-T
°C
Wind Press
QNH
hPa
Press
MSL
hPa
Rain since
9am
mm
Dir  Spd
km/h
Gust
km/h
Spd
kts
Gust
kts
19/12:00pm 23.1 24.8 17.1 69 3.7 E 4 7 2 4 1011.6 1011.5 0.0
19/11:30am 21.6 22.8 16.8 74 2.9 E 6 13 3 7 1011.9 1011.8 0.0
19/11:00am 20.5 21.3 16.3 77 2.5 NNE 7 11 4 6 1012.5 1012.4 0.0
19/10:30am 19.5 20.2 16.0 80 2.1 W 7 13 4 7 1013.3 1013.2 0.0
19/10:00am 19.6 20.7 16.6 83 1.8 WNW 6 13 3 7 1013.3 1013.2 0.0
19/09:30am 18.6 20.0 16.4 87 1.3 WNW 4 7 2 4 1013.2 1013.1 0.0
19/09:00am 18.4 19.5 16.6 89 1.1 WNW 6 9 3 5 1013.4 1013.3 0.0
19/08:30am 18.1 20.3 16.4 90 1.0 CALM 0 0 0 0 1012.8 1012.7 -
19/08:00am 17.7 20.0 16.7 94 0.6 CALM 0 0 0 0 1012.4 1012.3 -
19/07:30am 17.4 18.3 16.6 95 0.5 E 7 9 4 5 1012.1 1012.0 -
19/07:00am 17.1 19.0 16.6 97 0.3 SE 2 7 1 4 1012.4 1012.3 -
19/06:30am 17.0 19.2 16.5 97 0.3 CALM 0 0 0 0 1012.3 1012.2 -
19/06:00am 16.9 17.9 16.4 97 0.3 ENE 6 9 3 5 1012.1 1012.0 -
19/05:30am 17.0 18.8 16.4 96 0.4 ESE 2 7 1 4 1011.9 1011.8 -
19/05:00am 17.0 19.2 16.5 97 0.3 CALM 0 0 0 0 1012.1 1012.0 -
19/02:00am 16.8 16.7 16.0 95 0.5 W 11 15 6 8 1013.1 1013.0 0.0
19/01:30am 16.9 17.2 16.1 95 0.5 W 9 11 5 6 1013.1 1013.0 0.0
19/01:00am 16.9 18.2 16.1 95 0.5 NNW 4 7 2 4 1013.4 1013.3 0.0
19/12:30am 17.1 19.1 16.0 93 0.7 CALM 0 0 0 0 1013.8 1013.7 0.0
19/12:00am 17.2 17.5 15.9 92 0.8 W 9 11 5 6 1014.9 1014.7 0.0
 
Date/Time
EDT
Temp
°C
App
Temp
°C
Dew
Point
°C
Rel
Hum
%
Delta-T
°C
Wind Press
QNH
hPa
Press
MSL
hPa
Rain since
9am
mm
Dir  Spd
km/h
Gust
km/h
Spd
kts
Gust
kts
18/11:30pm 17.3 18.0 16.0 92 0.8 NNW 7 9 4 5 1014.8 1014.6 0.0
18/11:00pm 17.9 19.4 15.7 87 1.3 NE 2 6 1 3 1014.5 1014.3 0.0
18/10:30pm 18.3 19.0 15.7 85 1.5 WSW 6 15 3 8 1015.3 1015.1 0.0
18/10:00pm 18.1 18.2 15.5 85 1.5 S 9 13 5 7 1014.5 1014.3 0.0
18/09:30pm 18.2 17.9 15.5 84 1.6 SSE 11 22 6 12 1014.3 1014.1 0.0
18/09:00pm 18.6 17.9 15.3 81 1.9 SSE 13 24 7 13 1014.2 1014.0 0.0
18/08:30pm 19.2 18.8 15.1 77 2.4 SSE 11 19 6 10 1014.6 1014.4 0.0
18/08:00pm 20.1 19.8 15.5 75 2.7 SSE 11 19 6 10 1014.9 1014.7 0.0
18/07:30pm 20.7 20.0 15.3 71 3.2 S 13 20 7 11 1014.7 1014.5 0.0
18/07:00pm 21.4 20.6 15.0 67 3.8 SSE 13 22 7 12 1014.5 1014.3 0.0
18/06:30pm 22.5 22.0 14.9 62 4.5 S 11 20 6 11 1014.1 1013.9 0.0
18/06:00pm 22.4 21.3 14.3 60 4.8 S 13 20 7 11 1014.1 1013.9 0.0
18/05:30pm 23.1 22.3 14.1 57 5.3 SSE 11 20 6 11 1014.1 1013.9 0.0
18/05:00pm 22.8 20.6 13.3 55 5.5 SE 17 30 9 16 1014.1 1013.9 0.0
18/04:30pm 23.8 22.4 14.5 56 5.5 S 15 26 8 14 1014.1 1013.9 0.0
18/04:00pm 24.3 22.9 14.4 54 5.9 S 15 24 8 13 1014.3 1014.1 0.0
18/03:30pm 23.7 23.1 14.7 57 5.4 SSW 11 20 6 11 1014.5 1014.3 0.0
18/03:00pm 23.2 21.9 13.7 55 5.5 SE 13 20 7 11 1014.6 1014.4 0.0
18/02:30pm 23.4 22.8 13.6 54 5.7 SSE 9 17 5 9 1014.9 1014.7 0.0
18/02:00pm 22.7 21.1 12.9 54 5.6 SE 13 22 7 12 1014.8 1014.6 0.0
18/01:30pm 22.2 21.0 14.1 60 4.7 SSE 13 20 7 11 1015.4 1015.2 0.0
18/01:00pm 21.0 19.8 13.9 64 4.1 SE 13 22 7 12 1015.9 1015.7 0.0
18/12:30pm 20.3 19.2 13.0 63 4.2 SE 11 17 6 9 1016.3 1016.1 0.0
18/12:00pm 20.0 19.5 13.7 67 3.6 SSE 9 19 5 10 1016.7 1016.5 0.0
18/11:30am 19.2 18.6 13.4 69 3.3 SSW 9 17 5 9 1016.8 1016.6 0.0
18/11:00am 18.4 17.0 12.2 67 3.4 SE 11 17 6 9 1016.9 1016.7 0.0
18/10:30am 17.9 17.2 13.2 74 2.7 SE 9 17 5 9 1017.1 1016.9 0.0
18/10:00am 17.4 17.2 13.5 78 2.2 SSE 7 11 4 6 1016.7 1016.5 0.0
18/09:30am 17.1 16.9 13.0 77 2.3 SSE 6 13 3 7 1016.7 1016.5 0.0
18/09:00am 16.5 16.0 12.8 79 2.1 SE 7 11 4 6 1016.6 1016.4 0.0
18/08:30am 16.5 16.0 12.8 79 2.1 SSE 7 11 4 6 1016.5 1016.3 0.0
18/08:00am 16.8 16.1 13.3 80 2.0 S 9 15 5 8 1016.4 1016.2 0.0
18/07:30am 16.1 15.6 12.7 80 1.9 SSE 7 13 4 7 1015.8 1015.6 0.0
18/07:00am 15.8 15.4 12.5 81 1.8 SSE 6 9 3 5 1015.2 1015.0 0.0
18/06:30am 15.5 14.9 12.4 82 1.7 SSE 7 13 4 7 1015.0 1014.8 0.0
18/06:00am 15.5 15.7 13.0 85 1.4 S 4 9 2 5 1015.0 1014.8 0.0
18/05:30am 15.4 14.9 12.7 84 1.5 SSW 7 13 4 7 1014.5 1014.3 0.0
18/05:00am 15.5 14.7 13.0 85 1.4 S 9 15 5 8 1014.2 1014.0 0.0
18/04:30am 15.4 15.2 13.1 86 1.3 S 6 9 3 5 1014.1 1013.9 0.0
18/04:00am 15.4 14.8 13.4 88 1.1 SSE 9 13 5 7 1014.4 1014.2 0.0
18/03:30am 15.4 15.2 13.6 89 1.0 S 7 11 4 6 1014.3 1014.1 0.0
18/03:00am 15.4 15.3 13.9 91 0.8 S 7 9 4 5 1014.2 1014.0 0.0
18/02:30am 15.9 15.9 14.1 89 1.0 SSW 7 13 4 7 1014.8 1014.6 0.0
18/02:00am 16.1 16.1 14.3 89 1.0 S 7 11 4 6 1014.8 1014.6 0.0
18/01:30am 16.0 16.7 14.4 90 0.9 SSE 4 9 2 5 1014.9 1014.7 0.0
18/01:00am 16.0 16.3 14.5 91 0.9 SSE 6 9 3 5 1015.2 1015.0 0.0
18/12:30am 15.9 16.0 14.4 91 0.9 SSE 7 13 4 7 1015.3 1015.1 0.0
18/12:00am 16.0 16.4 14.7 92 0.7 SE 6 9 3 5 1015.4 1015.2 0.0
 
Date/Time
EDT
Temp
°C
App
Temp
°C
Dew
Point
°C
Rel
Hum
%
Delta-T
°C
Wind Press
QNH
hPa
Press
MSL
hPa
Rain since
9am
mm
Dir  Spd
km/h
Gust
km/h
Spd
kts
Gust
kts
17/11:30pm 15.8 15.5 14.3 91 0.9 S 9 15 5 8 1015.2 1015.0 0.0
17/11:00pm 16.2 15.5 14.4 89 1.0 S 11 20 6 11 1015.2 1015.0 0.0
17/10:30pm 16.6 15.6 14.6 88 1.2 SSE 13 19 7 10 1014.7 1014.5 0.0
17/10:00pm 17.1 17.5 14.7 86 1.4 S 6 13 3 7 1015.1 1014.9 0.0
17/09:30pm 17.8 17.2 14.7 82 1.8 SE 11 19 6 10 1014.8 1014.6 0.0
17/09:00pm 18.8 19.2 15.3 80 2.1 SSE 7 13 4 7 1014.8 1014.6 0.0
17/08:30pm 19.5 20.1 15.2 76 2.5 SSW 6 11 3 6 1014.5 1014.3 0.0
17/08:00pm 20.9 20.6 14.5 67 3.8 SSW 9 20 5 11 1014.2 1014.0 0.0
17/07:30pm 22.1 22.2 15.5 66 4.0 S 9 17 5 9 1013.7 1013.6 0.0
17/07:00pm 21.6 20.6 14.7 65 4.1 SSE 13 17 7 9 1013.2 1013.1 0.0
17/06:30pm 23.1 21.6 15.2 61 4.7 WSW 17 24 9 13 1012.8 1012.7 0.0
17/06:00pm 23.0 21.4 15.1 61 4.7 WSW 17 26 9 14 1012.6 1012.5 0.0
17/05:30pm 22.7 20.1 15.0 61 4.6 SW 22 30 12 16 1012.7 1012.6 0.0
17/05:00pm 22.6 21.5 15.2 63 4.4 SW 15 24 8 13 1012.4 1012.3 0.0
17/04:30pm 22.3 20.8 15.4 65 4.1 SW 17 26 9 14 1012.3 1012.2 0.0
17/04:00pm 22.6 22.0 15.7 65 4.2 SW 13 20 7 11 1012.3 1012.2 0.0
17/03:30pm 22.2 21.4 15.1 64 4.2 SSW 13 24 7 13 1012.3 1012.2 0.0
17/03:00pm 22.3 22.1 14.7 62 4.5 SSW 9 13 5 7 1012.1 1012.0 0.0
17/02:30pm 22.1 22.1 15.2 65 4.1 S 9 17 5 9 1011.9 1011.8 0.0
17/02:00pm 22.5 24.0 15.6 65 4.2 SW 2 11 1 6 1011.9 1011.8 0.0
17/01:30pm 21.0 20.9 14.9 68 3.6 S 9 15 5 8 1011.8 1011.7 0.0
17/01:00pm 21.5 21.9 16.2 72 3.2 NW 9 13 5 7 1012.0 1011.9 0.0
17/12:30pm 20.3 20.8 15.5 74 2.9 NW 7 15 4 8 1012.2 1012.1 0.0
17/12:00pm 20.0 20.4 15.4 75 2.7 NNW 7 13 4 7 1012.2 1012.1 0.0
17/11:30am 19.2 19.3 15.5 79 2.2 WNW 9 13 5 7 1012.3 1012.2 0.0
17/11:00am 18.6 18.3 15.5 82 1.8 WNW 11 17 6 9 1012.3 1012.2 0.0
17/10:30am 18.7 18.3 15.2 80 2.1 WNW 11 17 6 9 1012.0 1011.9 0.0
17/10:00am 18.4 18.8 16.2 87 1.3 WNW 9 15 5 8 1011.9 1011.8 0.0
17/09:30am 18.1 19.5 17.9 99 0.1 W 7 15 4 8 1011.7 1011.6 0.0
17/09:00am 16.7 17.8 16.7 100 0.0 W 6 9 3 5 1011.8 1011.7 2.8
17/08:30am 15.9 17.1 15.9 100 0.0 NW 4 9 2 5 1011.7 1011.6 2.8
17/08:00am 15.4 17.2 15.4 100 0.0 CALM 0 0 0 0 1011.2 1011.1 2.8
17/07:30am 14.5 15.9 14.5 100 0.0 CALM 0 0 0 0 1010.7 1010.6 2.8
17/07:00am 14.2 15.5 14.2 100 0.0 CALM 0 0 0 0 1010.5 1010.4 2.8
17/06:30am 13.1 14.1 13.1 100 0.0 CALM 0 0 0 0 1010.0 1009.8 2.8
17/06:00am 12.5 13.3 12.5 100 0.0 CALM 0 0 0 0 1009.8 1009.6 2.8
17/05:30am 12.6 13.4 12.6 100 0.0 CALM 0 0 0 0 1009.4 1009.2 2.8
17/05:00am 13.0 13.6 13.0 100 0.0 S 2 7 1 4 1009.2 1009.0 2.8
17/04:30am 12.5 13.3 12.5 100 0.0 CALM 0 6 0 3 1008.8 1008.6 2.8
17/04:00am 12.7 13.5 12.7 100 0.0 CALM 0 0 0 0 1008.5 1008.3 2.8
17/03:30am 12.5 13.3 12.5 100 0.0 CALM 0 0 0 0 1008.4 1008.2 2.6
17/03:00am 12.5 13.3 12.5 100 0.0 CALM 0 0 0 0 1008.1 1007.9 2.6
17/02:30am 12.8 13.7 12.8 100 0.0 CALM 0 0 0 0 1008.3 1008.1 2.6
17/02:00am 13.1 14.1 13.1 100 0.0 CALM 0 0 0 0 1008.4 1008.2 2.6
17/01:30am 13.2 14.2 13.2 100 0.0 CALM 0 4 0 2 1008.7 1008.5 2.6
17/01:00am 13.8 15.0 13.8 100 0.0 CALM 0 0 0 0 1008.5 1008.3 2.6
17/12:30am 13.8 14.9 13.6 99 0.1 CALM 0 0 0 0 1008.4 1008.2 2.6
17/12:00am 14.1 15.3 13.9 99 0.1 CALM 0 0 0 0 1008.7 1008.5 2.6
 
Date/Time
EDT
Temp
°C
App
Temp
°C
Dew
Point
°C
Rel
Hum
%
Delta-T
°C
Wind Press
QNH
hPa
Press
MSL
hPa
Rain since
9am
mm
Dir  Spd
km/h
Gust
km/h
Spd
kts
Gust
kts
16/11:30pm 14.4 15.7 14.2 99 0.1 CALM 0 0 0 0 1008.4 1008.2 2.6
16/11:00pm 14.6 16.0 14.4 99 0.1 CALM 0 0 0 0 1008.5 1008.3 2.6
16/10:30pm 15.5 17.2 15.3 99 0.1 CALM 0 0 0 0 1008.1 1007.9 2.6
16/10:00pm 16.1 18.1 15.9 99 0.1 CALM 0 0 0 0 1008.0 1007.8 2.6
16/09:30pm 16.8 18.2 16.3 97 0.3 N 4 7 2 4 1007.7 1007.5 2.6
16/09:00pm 17.5 19.7 16.5 94 0.6 CALM 0 7 0 4 1007.7 1007.5 2.2
16/08:30pm 19.0 19.3 15.1 78 2.3 N 7 13 4 7 1007.2 1007.0 0.8
16/08:00pm 19.0 18.8 14.7 76 2.5 N 9 17 5 9 1007.0 1006.8 0.8
16/07:30pm 19.5 18.0 14.1 71 3.1 N 15 24 8 13 1006.8 1006.6 0.8
16/07:00pm 20.8 19.4 14.5 67 3.7 N 15 22 8 12 1006.5 1006.3 0.8
16/06:30pm 20.0 18.4 13.9 68 3.5 N 15 24 8 13 1006.2 1006.0 0.8
16/06:00pm 20.7 19.1 13.9 65 4.0 N 15 26 8 14 1005.9 1005.7 0.8
16/05:30pm 20.3 18.8 14.2 68 3.5 N 15 22 8 12 1006.0 1005.8 0.8
16/05:00pm 20.9 18.3 13.8 64 4.1 N 20 32 11 17 1005.7 1005.5 0.8
16/04:30pm 20.5 18.9 13.9 66 3.8 N 15 24 8 13 1005.8 1005.6 0.8
16/04:00pm 20.4 18.0 14.5 69 3.5 N 20 30 11 16 1005.9 1005.7 0.8
16/03:30pm 21.8 19.2 14.9 65 4.1 N 22 35 12 19 1006.0 1005.8 0.8
16/03:00pm 20.9 18.2 13.6 63 4.2 N 20 33 11 18 1005.7 1005.5 0.8
16/02:30pm 21.9 19.3 15.0 65 4.1 N 22 33 12 18 1005.7 1005.5 0.8
16/02:00pm 20.2 17.5 13.6 66 3.8 N 20 37 11 20 1005.9 1005.7 0.8
16/01:30pm 20.5 18.1 13.9 66 3.8 N 19 32 10 17 1005.9 1005.7 0.8
16/01:00pm 19.4 18.1 13.8 70 3.2 NNW 13 22 7 12 1006.2 1006.0 0.8
16/12:30pm 20.1 18.1 13.8 67 3.6 N 17 24 9 13 1006.2 1006.0 0.8

Latest Capital City Observations: Canberra | Sydney | Melbourne | Brisbane | Adelaide | Perth | Hobart | Darwin

Other Formats:

Comma delimited format used in spreadsheet applications
http://www.bom.gov.au/fwo/IDV60901/IDV60901.94864.axf

JavaScript Object Notation format (JSON) in row-major order
http://www.bom.gov.au/fwo/IDV60901/IDV60901.94864.json